Time;durP1;ratioP1;P1;durP2;ratioP2;P2;SDS_P1;SDS_P2;PMS_P1;PMS_P2;Temp;Humidity;BMP_temperature;BMP_pressure;BME280_temperature;BME280_humidity;BME280_pressure;Samples;Min_cycle;Max_cycle;Signal;HPM_P1;HPM_P2
2023/06/19 00:00:15;;;;;;;14.10;7.97;;;22.50;89.10;;;;;;5068321;28;20133;-65
2023/06/19 00:02:42;;;;;;;7.22;6.45;;;22.40;89.30;;;;;;5065224;28;20357;-63
2023/06/19 00:05:09;;;;;;;9.23;6.75;;;22.50;89.50;;;;;;5072297;28;20040;-63
2023/06/19 00:07:39;;;;;;;10.40;7.00;;;22.50;89.70;;;;;;5083636;28;20519;-63
2023/06/19 00:10:06;;;;;;;8.50;6.85;;;22.40;89.80;;;;;;5073051;28;20156;-63
2023/06/19 00:12:32;;;;;;;11.00;7.00;;;22.40;90.00;;;;;;5069622;28;20140;-63
2023/06/19 00:14:58;;;;;;;8.32;6.95;;;22.40;90.00;;;;;;5073847;28;20047;-64
2023/06/19 00:17:26;;;;;;;8.00;6.85;;;22.40;90.00;;;;;;5074524;28;20032;-63
2023/06/19 00:19:53;;;;;;;7.85;6.60;;;22.40;90.10;;;;;;5069563;28;20048;-63
2023/06/19 00:22:19;;;;;;;7.78;6.60;;;22.40;90.20;;;;;;5074503;28;20043;-63
2023/06/19 00:24:45;;;;;;;9.15;5.85;;;22.40;90.20;;;;;;5071285;28;20052;-63
2023/06/19 00:27:11;;;;;;;7.32;6.60;;;22.40;90.20;;;;;;5076178;28;20052;-63
2023/06/19 00:29:37;;;;;;;7.32;6.38;;;22.40;90.30;;;;;;5098595;28;20165;-63
2023/06/19 00:32:03;;;;;;;8.05;6.15;;;22.40;90.30;;;;;;5071425;28;20487;-63
2023/06/19 00:34:30;;;;;;;10.35;6.25;;;22.40;90.30;;;;;;5072649;28;20059;-63
2023/06/19 00:36:57;;;;;;;7.75;6.60;;;22.40;90.40;;;;;;5075831;28;20411;-63
2023/06/19 00:39:27;;;;;;;8.93;6.47;;;22.30;90.40;;;;;;5070666;28;20040;-63
2023/06/19 00:41:53;;;;;;;8.20;6.63;;;22.30;90.50;;;;;;5070278;28;20127;-63
2023/06/19 00:44:19;;;;;;;7.43;6.40;;;22.30;90.50;;;;;;5069084;28;20033;-63
2023/06/19 00:46:45;;;;;;;7.10;6.40;;;22.30;90.60;;;;;;5073439;28;20122;-63
2023/06/19 00:49:11;;;;;;;8.23;6.28;;;22.30;90.60;;;;;;5073708;28;20059;-63
2023/06/19 00:51:38;;;;;;;6.28;5.65;;;22.30;90.70;;;;;;5071687;28;20120;-64
2023/06/19 00:54:04;;;;;;;6.97;6.20;;;22.30;90.70;;;;;;5071235;28;20118;-64
2023/06/19 00:56:31;;;;;;;6.97;6.10;;;22.30;90.70;;;;;;5068932;28;20129;-64
2023/06/19 00:58:57;;;;;;;9.10;7.00;;;22.30;90.70;;;;;;5070572;28;20127;-63
2023/06/19 01:01:26;;;;;;;8.98;6.50;;;22.20;90.80;;;;;;5075656;28;20490;-63
2023/06/19 01:03:51;;;;;;;7.43;6.30;;;22.30;90.80;;;;;;5072561;28;20040;-64
2023/06/19 01:06:22;;;;;;;8.80;6.47;;;22.20;90.80;;;;;;5071867;28;20122;-64
2023/06/19 01:08:56;;;;;;;6.85;6.05;;;22.20;90.80;;;;;;5079834;28;20478;-63
2023/06/19 01:11:28;;;;;;;7.10;6.20;;;22.20;90.80;;;;;;5074209;28;20286;-63
2023/06/19 01:13:59;;;;;;;6.68;5.97;;;22.20;90.80;;;;;;5100269;27;20036;-63
2023/06/19 01:16:27;;;;;;;8.43;6.47;;;22.20;90.80;;;;;;5073423;28;20036;-64
2023/06/19 01:18:53;;;;;;;7.68;6.28;;;22.20;91.10;;;;;;5070190;28;20044;-63
2023/06/19 01:21:19;;;;;;;7.43;5.75;;;22.20;90.90;;;;;;5073567;28;20148;-63
2023/06/19 01:23:46;;;;;;;11.70;6.40;;;22.20;90.90;;;;;;5071633;28;20364;-63
2023/06/19 01:26:12;;;;;;;9.50;6.57;;;22.20;90.90;;;;;;5099437;28;20321;-64
2023/06/19 01:28:42;;;;;;;8.57;6.53;;;22.20;90.90;;;;;;5069659;28;20056;-63
2023/06/19 01:31:25;;;;;;;9.15;6.43;;;22.20;90.90;;;;;;5106779;27;20416;-63
2023/06/19 01:33:53;;;;;;;7.35;6.13;;;22.20;90.90;;;;;;5065809;28;20098;-63
2023/06/19 01:36:21;;;;;;;9.65;6.15;;;22.10;90.90;;;;;;5067380;28;20109;-64
2023/06/19 01:38:49;;;;;;;10.40;6.57;;;22.10;90.90;;;;;;5069963;28;20044;-63
2023/06/19 01:41:17;;;;;;;11.07;6.55;;;22.10;90.90;;;;;;5072513;28;20040;-63
2023/06/19 01:43:44;;;;;;;10.32;7.22;;;22.10;90.90;;;;;;5073101;28;20039;-64
2023/06/19 01:46:10;;;;;;;7.43;6.45;;;22.10;90.90;;;;;;5070436;28;20036;-63
2023/06/19 01:48:37;;;;;;;7.53;6.03;;;22.10;91.20;;;;;;5066630;28;20106;-63
2023/06/19 01:51:03;;;;;;;6.45;5.72;;;22.10;90.90;;;;;;5067859;28;20428;-63
2023/06/19 01:53:33;;;;;;;7.50;6.07;;;22.10;90.90;;;;;;5070229;28;20112;-63
2023/06/19 01:55:59;;;;;;;7.18;6.15;;;22.10;90.90;;;;;;5067662;28;20520;-64
2023/06/19 01:58:25;;;;;;;8.23;6.72;;;22.10;90.90;;;;;;5099824;28;20051;-63
2023/06/19 02:00:51;;;;;;;8.13;6.57;;;22.10;90.90;;;;;;5068974;28;20048;-63
2023/06/19 02:03:17;;;;;;;7.13;6.15;;;22.00;90.80;;;;;;5074133;28;20044;-64
2023/06/19 02:05:43;;;;;;;10.05;6.60;;;22.00;90.80;;;;;;5071146;28;20419;-64
2023/06/19 02:08:09;;;;;;;8.30;6.30;;;22.00;90.80;;;;;;5069806;28;20212;-64
2023/06/19 02:10:35;;;;;;;7.88;6.80;;;22.00;90.80;;;;;;5070068;28;20486;-63
2023/06/19 02:13:00;;;;;;;8.52;6.07;;;22.00;90.70;;;;;;5072502;28;20044;-63
2023/06/19 02:15:26;;;;;;;11.50;7.03;;;22.00;90.70;;;;;;5103136;27;20045;-63
2023/06/19 02:17:57;;;;;;;12.85;7.13;;;22.00;90.60;;;;;;5072574;28;20033;-63
2023/06/19 02:20:26;;;;;;;7.78;6.05;;;21.90;90.60;;;;;;5067195;28;20145;-64
2023/06/19 02:22:52;;;;;;;8.50;5.90;;;22.00;90.50;;;;;;5103048;27;20040;-64
2023/06/19 02:25:18;;;;;;;8.20;6.53;;;22.00;90.50;;;;;;5050016;28;20037;-63
2023/06/19 02:27:45;;;;;;;6.78;6.10;;;21.90;90.40;;;;;;5098985;27;20067;-63
2023/06/19 02:30:11;;;;;;;7.60;6.55;;;21.90;90.40;;;;;;5067446;28;20041;-63
2023/06/19 02:32:37;;;;;;;7.80;6.15;;;21.90;90.40;;;;;;5071704;28;20883;-63
2023/06/19 02:35:05;;;;;;;7.28;6.03;;;21.90;90.30;;;;;;5073356;28;20044;-63
2023/06/19 02:37:31;;;;;;;7.55;6.38;;;21.90;90.30;;;;;;5069502;28;20036;-64
2023/06/19 02:39:58;;;;;;;10.88;7.70;;;21.90;90.30;;;;;;5067830;28;20071;-63
2023/06/19 02:42:23;;;;;;;15.05;6.70;;;21.90;90.20;;;;;;5070295;28;20044;-64
2023/06/19 02:44:49;;;;;;;9.80;6.22;;;21.90;90.10;;;;;;5073338;28;20097;-66
2023/06/19 02:47:15;;;;;;;9.80;6.22;;;21.90;90.10;;;;;;5067196;28;20456;-63
2023/06/19 02:49:41;;;;;;;8.43;6.45;;;21.80;90.00;;;;;;5071569;28;20044;-63
2023/06/19 02:52:08;;;;;;;7.75;6.47;;;21.90;90.00;;;;;;5069275;28;20364;-64
2023/06/19 02:54:34;;;;;;;8.98;6.75;;;21.80;89.80;;;;;;5076523;28;20058;-63
2023/06/19 02:57:00;;;;;;;10.38;7.03;;;21.80;89.60;;;;;;5067655;28;20499;-63
2023/06/19 02:59:25;;;;;;;8.95;6.93;;;21.80;89.50;;;;;;5071372;28;20174;-63
2023/06/19 03:01:51;;;;;;;10.00;7.28;;;21.80;89.30;;;;;;5067804;28;20052;-63
2023/06/19 03:04:17;;;;;;;9.30;7.43;;;21.80;89.20;;;;;;5074903;28;20049;-63
2023/06/19 03:06:43;;;;;;;9.57;7.03;;;21.80;89.20;;;;;;5068827;28;20089;-64
2023/06/19 03:09:12;;;;;;;8.35;7.18;;;21.70;89.10;;;;;;5101486;28;20446;-63
2023/06/19 03:11:41;;;;;;;7.82;6.22;;;21.70;89.00;;;;;;5065220;28;20047;-63
2023/06/19 03:14:07;;;;;;;9.27;7.97;;;21.70;89.00;;;;;;5064382;28;20321;-64
2023/06/19 03:16:36;;;;;;;9.32;7.43;;;21.70;89.10;;;;;;5066102;28;20041;-63
2023/06/19 03:19:02;;;;;;;7.68;6.35;;;21.70;89.10;;;;;;5051966;28;20078;-63
2023/06/19 03:21:28;;;;;;;8.32;7.30;;;21.70;89.20;;;;;;5068192;28;20052;-64
2023/06/19 03:23:54;;;;;;;10.10;7.60;;;21.70;89.30;;;;;;5071964;28;20349;-64
2023/06/19 03:26:21;;;;;;;8.55;6.30;;;21.70;89.50;;;;;;5098157;28;20048;-64
2023/06/19 03:28:47;;;;;;;8.15;6.50;;;21.70;89.70;;;;;;5067844;28;20396;-63
2023/06/19 03:31:13;;;;;;;12.32;6.68;;;21.60;89.80;;;;;;5069849;28;20098;-64
2023/06/19 03:33:39;;;;;;;7.90;6.75;;;21.60;90.00;;;;;;5068797;28;20037;-63
2023/06/19 03:36:05;;;;;;;8.07;6.75;;;21.60;90.10;;;;;;5066678;28;20101;-63
2023/06/19 03:38:31;;;;;;;8.57;6.47;;;21.60;90.20;;;;;;5066628;28;20040;-64
2023/06/19 03:40:57;;;;;;;8.95;7.45;;;21.60;90.30;;;;;;5066787;28;20032;-63
2023/06/19 03:43:23;;;;;;;9.07;7.15;;;21.60;90.30;;;;;;5036525;28;20044;-64
2023/06/19 03:45:49;;;;;;;9.05;7.28;;;21.60;90.50;;;;;;5086853;28;20035;-61
2023/06/19 03:48:16;;;;;;;10.13;7.72;;;21.60;90.60;;;;;;5069728;28;20047;-62
2023/06/19 03:50:42;;;;;;;8.73;6.82;;;21.50;90.60;;;;;;5103025;27;20044;-62
2023/06/19 03:53:08;;;;;;;9.63;7.22;;;21.50;90.70;;;;;;5070844;28;20423;-62
2023/06/19 03:55:34;;;;;;;9.70;7.20;;;21.50;90.80;;;;;;5070114;28;20492;-63
2023/06/19 03:58:00;;;;;;;9.95;6.68;;;21.50;90.90;;;;;;5070352;28;20051;-61
2023/06/19 04:00:26;;;;;;;9.65;6.07;;;21.50;91.00;;;;;;5088861;28;20101;-63
2023/06/19 04:02:51;;;;;;;8.38;6.05;;;21.50;91.10;;;;;;5071585;28;20052;-63
2023/06/19 04:05:17;;;;;;;7.00;5.93;;;21.40;91.20;;;;;;5071057;28;20455;-63
2023/06/19 04:07:43;;;;;;;7.20;4.80;;;21.40;91.40;;;;;;5057593;28;20166;-63
2023/06/19 04:10:11;;;;;;;10.32;5.15;;;21.40;91.70;;;;;;5071825;28;20129;-63
2023/06/19 04:12:37;;;;;;;6.45;4.53;;;21.40;91.90;;;;;;5067907;28;20098;-63
2023/06/19 04:15:04;;;;;;;5.60;3.60;;;21.40;92.10;;;;;;5074439;28;20537;-63
2023/06/19 04:17:29;;;;;;;4.88;3.55;;;21.40;92.30;;;;;;5072706;28;20063;-64
2023/06/19 04:19:55;;;;;;;5.22;3.60;;;21.30;92.50;;;;;;5068743;28;20055;-63
2023/06/19 04:22:21;;;;;;;4.30;3.08;;;21.30;92.70;;;;;;5073732;28;20124;-63
2023/06/19 04:24:47;;;;;;;4.82;3.08;;;21.30;93.20;;;;;;5068640;28;20524;-63
2023/06/19 04:27:12;;;;;;;5.20;2.90;;;21.30;93.20;;;;;;5065553;28;20629;-63
2023/06/19 04:29:38;;;;;;;5.70;2.20;;;21.30;93.40;;;;;;5068661;28;20492;-63
2023/06/19 04:32:10;;;;;;;4.60;3.08;;;21.30;93.70;;;;;;5073515;28;20445;-64
2023/06/19 04:34:38;;;;;;;6.90;2.97;;;21.20;93.80;;;;;;5070206;28;20058;-63
2023/06/19 04:37:04;;;;;;;5.00;2.80;;;21.20;94.00;;;;;;5074163;28;20442;-63
2023/06/19 04:39:30;;;;;;;5.72;2.20;;;21.20;94.20;;;;;;5069297;28;20457;-63
2023/06/19 04:41:55;;;;;;;5.82;3.38;;;21.20;94.30;;;;;;5072983;28;20044;-63
2023/06/19 04:44:21;;;;;;;4.60;2.67;;;21.30;94.50;;;;;;5072273;28;20511;-63
2023/06/19 04:46:48;;;;;;;4.60;3.00;;;21.30;94.70;;;;;;5073137;28;20097;-63
2023/06/19 04:49:14;;;;;;;5.90;2.67;;;21.20;94.80;;;;;;5073979;28;20044;-63
2023/06/19 04:51:41;;;;;;;3.88;2.28;;;21.30;94.90;;;;;;5068367;28;20457;-63
2023/06/19 04:54:07;;;;;;;4.53;2.60;;;21.30;95.10;;;;;;5078696;28;20114;-63
2023/06/19 04:56:32;;;;;;;3.95;2.42;;;21.30;95.20;;;;;;5071255;28;20443;-63
2023/06/19 04:58:59;;;;;;;4.35;2.78;;;21.30;95.30;;;;;;5073498;28;20067;-63
2023/06/19 05:01:30;;;;;;;4.63;3.10;;;21.30;95.50;;;;;;5070242;28;20105;-63
2023/06/19 05:03:56;;;;;;;5.38;2.90;;;21.30;95.50;;;;;;5076836;28;20400;-63
2023/06/19 05:06:26;;;;;;;4.85;2.40;;;21.30;95.70;;;;;;5069167;28;20082;-65
2023/06/19 05:08:52;;;;;;;3.90;2.72;;;21.30;95.70;;;;;;5069947;28;20098;-63
2023/06/19 05:11:18;;;;;;;4.60;2.60;;;21.30;95.90;;;;;;5070277;28;20117;-63
2023/06/19 05:13:44;;;;;;;7.45;3.75;;;21.40;95.90;;;;;;5067937;28;20076;-64
2023/06/19 05:16:11;;;;;;;4.63;2.95;;;21.40;96.10;;;;;;5070460;28;20076;-63
2023/06/19 05:18:37;;;;;;;4.63;3.03;;;21.40;96.20;;;;;;5067428;28;20040;-64
2023/06/19 05:21:03;;;;;;;4.28;3.13;;;21.40;96.30;;;;;;5064771;28;20040;-64
2023/06/19 05:23:28;;;;;;;5.93;3.53;;;21.40;96.50;;;;;;5066922;28;20411;-64
2023/06/19 05:25:54;;;;;;;4.75;3.42;;;21.40;96.60;;;;;;5066047;28;20054;-63
2023/06/19 05:28:20;;;;;;;4.72;3.60;;;21.40;96.80;;;;;;5065207;28;20503;-63
2023/06/19 05:30:46;;;;;;;6.75;4.00;;;21.40;96.90;;;;;;5072892;28;20040;-64
2023/06/19 05:33:15;;;;;;;6.78;3.85;;;21.40;97.10;;;;;;5066485;28;20168;-63
2023/06/19 05:35:43;;;;;;;6.38;4.07;;;21.40;97.30;;;;;;5065465;28;20119;-63
2023/06/19 05:38:09;;;;;;;7.03;5.38;;;21.40;97.40;;;;;;5060230;28;20111;-63
2023/06/19 05:40:34;;;;;;;10.43;6.25;;;21.40;97.60;;;;;;5066697;28;20048;-63
2023/06/19 05:43:00;;;;;;;9.75;5.72;;;21.30;97.90;;;;;;5069742;28;20074;-63
2023/06/19 05:45:26;;;;;;;9.15;6.50;;;21.30;98.10;;;;;;5070973;28;20364;-63
2023/06/19 05:47:52;;;;;;;10.52;6.90;;;21.40;98.30;;;;;;5070183;28;20044;-63
2023/06/19 05:50:18;;;;;;;7.80;6.22;;;21.40;98.50;;;;;;5066627;28;20512;-63
2023/06/19 05:52:44;;;;;;;9.70;7.50;;;21.40;98.60;;;;;;5084268;28;20512;-63
2023/06/19 05:55:10;;;;;;;12.73;8.80;;;21.40;98.80;;;;;;5032292;28;20044;-63
2023/06/19 05:57:37;;;;;;;13.30;9.80;;;21.40;99.10;;;;;;5074484;28;20061;-63
2023/06/19 06:00:03;;;;;;;13.40;10.95;;;21.40;99.30;;;;;;5070500;28;20170;-63
2023/06/19 06:02:29;;;;;;;14.00;11.52;;;21.40;99.50;;;;;;5067072;28;20052;-63
2023/06/19 06:04:56;;;;;;;16.50;11.82;;;21.40;99.80;;;;;;5067848;28;20108;-64
2023/06/19 06:07:22;;;;;;;17.10;14.15;;;21.50;99.90;;;;;;5074686;28;20043;-64
2023/06/19 06:09:47;;;;;;;18.77;15.55;;;21.50;99.90;;;;;;5066523;28;20578;-63
2023/06/19 06:12:13;;;;;;;17.85;15.32;;;21.50;99.90;;;;;;5066894;28;20029;-63
2023/06/19 06:14:41;;;;;;;19.15;14.45;;;21.50;99.90;;;;;;5068795;28;20075;-64
2023/06/19 06:17:07;;;;;;;20.75;17.85;;;21.50;99.90;;;;;;5069046;28;20457;-63
2023/06/19 06:19:33;;;;;;;27.65;19.35;;;21.50;99.90;;;;;;5066554;28;20520;-63
2023/06/19 06:21:58;;;;;;;20.20;17.00;;;21.40;99.90;;;;;;5065156;28;20089;-63
2023/06/19 06:24:24;;;;;;;25.65;19.52;;;21.50;99.90;;;;;;5065476;28;20040;-63
2023/06/19 06:26:50;;;;;;;21.92;18.20;;;21.50;99.90;;;;;;5097630;27;20428;-63
2023/06/19 06:29:16;;;;;;;24.35;18.67;;;21.50;99.90;;;;;;5067230;28;20802;-63
2023/06/19 06:31:41;;;;;;;23.95;18.80;;;21.50;99.90;;;;;;5067390;28;20097;-63
2023/06/19 06:34:08;;;;;;;20.27;17.20;;;21.50;99.90;;;;;;5067471;28;20411;-63
2023/06/19 06:36:33;;;;;;;21.35;16.73;;;21.50;99.90;;;;;;5072468;28;20035;-63
2023/06/19 06:38:59;;;;;;;21.83;17.25;;;21.50;99.90;;;;;;5063189;28;20624;-64
2023/06/19 06:41:25;;;;;;;21.88;15.52;;;21.50;99.90;;;;;;5065843;28;20037;-63
2023/06/19 06:43:52;;;;;;;23.67;18.50;;;21.50;99.90;;;;;;5062314;28;20036;-63
2023/06/19 06:46:17;;;;;;;21.25;16.48;;;21.50;99.90;;;;;;5072424;28;20091;-63
2023/06/19 06:48:43;;;;;;;22.65;18.20;;;21.50;99.90;;;;;;5066553;28;20080;-62
2023/06/19 06:51:10;;;;;;;23.63;18.38;;;21.50;99.90;;;;;;5066419;28;20036;-63
2023/06/19 06:53:36;;;;;;;22.08;17.70;;;21.50;99.90;;;;;;5067577;28;20036;-63
2023/06/19 06:56:02;;;;;;;23.02;20.10;;;21.50;99.90;;;;;;5068727;28;20044;-63
2023/06/19 06:58:28;;;;;;;24.63;18.05;;;21.40;99.90;;;;;;5068962;28;20036;-62
2023/06/19 07:00:56;;;;;;;25.13;19.80;;;21.40;99.90;;;;;;5063531;28;20047;-63
2023/06/19 07:03:21;;;;;;;25.20;18.48;;;21.40;99.90;;;;;;5070910;28;20041;-63
2023/06/19 07:05:50;;;;;;;25.02;18.05;;;21.40;99.90;;;;;;5068294;28;20050;-63
2023/06/19 07:08:16;;;;;;;25.27;17.00;;;21.30;99.90;;;;;;5067551;28;20040;-62
2023/06/19 07:10:41;;;;;;;26.58;17.50;;;21.30;99.90;;;;;;5099887;28;20056;-63
2023/06/19 07:13:07;;;;;;;21.67;17.38;;;21.30;99.90;;;;;;5064037;28;20079;-63
2023/06/19 07:15:33;;;;;;;24.70;17.77;;;21.30;99.90;;;;;;5065843;28;20126;-63
2023/06/19 07:17:59;;;;;;;28.02;18.23;;;21.20;99.90;;;;;;5070943;28;20036;-62
2023/06/19 07:20:25;;;;;;;24.83;17.67;;;21.20;99.90;;;;;;5066902;28;20373;-63
2023/06/19 07:22:52;;;;;;;22.92;16.80;;;21.20;99.90;;;;;;5075011;28;20047;-62
2023/06/19 07:25:18;;;;;;;25.60;18.98;;;21.20;99.90;;;;;;5069057;28;20055;-64
2023/06/19 07:27:44;;;;;;;21.85;16.15;;;21.20;99.90;;;;;;5071834;28;20049;-62
2023/06/19 07:30:13;;;;;;;25.75;17.80;;;21.20;99.90;;;;;;5074620;28;20414;-63
2023/06/19 07:32:39;;;;;;;26.67;17.88;;;21.20;99.90;;;;;;5069328;28;20040;-63
2023/06/19 07:35:06;;;;;;;24.10;16.10;;;21.10;99.90;;;;;;5072797;28;20043;-63
2023/06/19 07:37:32;;;;;;;24.60;16.73;;;21.10;99.90;;;;;;5070673;28;20045;-62
2023/06/19 07:39:58;;;;;;;24.92;15.85;;;21.10;99.90;;;;;;5072893;28;20075;-63
2023/06/19 07:42:23;;;;;;;25.38;15.80;;;21.10;99.90;;;;;;5070162;28;20782;-63
2023/06/19 07:44:49;;;;;;;23.92;16.67;;;21.10;99.90;;;;;;5065596;28;20048;-63
2023/06/19 07:47:18;;;;;;;22.13;14.38;;;21.10;99.90;;;;;;5071733;28;20327;-62
2023/06/19 07:49:44;;;;;;;17.88;13.30;;;21.10;99.90;;;;;;5076349;28;20044;-63
2023/06/19 07:52:10;;;;;;;20.73;14.15;;;21.10;99.90;;;;;;5068611;28;20037;-63
2023/06/19 07:54:36;;;;;;;21.10;15.25;;;21.10;99.90;;;;;;5070923;28;20530;-62
2023/06/19 07:57:02;;;;;;;18.20;13.98;;;21.10;99.90;;;;;;5071448;28;20451;-63
2023/06/19 07:59:28;;;;;;;16.83;12.77;;;21.10;99.90;;;;;;5070137;28;20051;-63
2023/06/19 08:01:54;;;;;;;21.15;14.00;;;21.10;99.90;;;;;;5069455;28;20044;-63
2023/06/19 08:04:19;;;;;;;16.30;11.10;;;21.10;99.90;;;;;;5071294;28;20569;-63
2023/06/19 08:06:45;;;;;;;19.30;12.40;;;21.10;99.90;;;;;;5068975;28;20411;-63
2023/06/19 08:09:11;;;;;;;24.95;11.90;;;21.10;99.90;;;;;;5071800;28;20048;-63
2023/06/19 08:11:37;;;;;;;14.75;11.50;;;21.10;99.90;;;;;;5071230;28;20040;-63
2023/06/19 08:14:03;;;;;;;12.18;9.52;;;21.10;99.90;;;;;;5070616;28;20120;-63
2023/06/19 08:16:29;;;;;;;14.88;9.02;;;21.10;99.90;;;;;;5066822;28;20503;-63
2023/06/19 08:18:54;;;;;;;10.93;8.90;;;21.00;99.90;;;;;;5075868;28;20179;-63
2023/06/19 08:21:21;;;;;;;14.23;8.93;;;21.00;99.90;;;;;;5069512;28;20117;-63
2023/06/19 08:23:48;;;;;;;12.60;9.13;;;21.00;99.90;;;;;;5069659;28;20040;-62
2023/06/19 08:26:14;;;;;;;10.25;7.97;;;21.00;99.90;;;;;;5067959;28;20447;-63
2023/06/19 08:28:41;;;;;;;16.05;8.57;;;21.00;99.90;;;;;;5090411;28;20092;-63
2023/06/19 08:31:07;;;;;;;10.85;8.05;;;21.00;99.90;;;;;;5066060;28;20048;-63
2023/06/19 08:33:35;;;;;;;12.20;9.25;;;21.00;99.90;;;;;;5068836;28;20111;-63
2023/06/19 08:36:01;;;;;;;10.77;8.13;;;21.00;99.90;;;;;;5074090;28;20471;-63
2023/06/19 08:38:27;;;;;;;13.07;9.35;;;20.90;99.90;;;;;;5070150;28;20066;-62
2023/06/19 08:40:53;;;;;;;11.55;8.65;;;21.00;99.90;;;;;;5068338;28;20488;-63
2023/06/19 08:43:19;;;;;;;22.77;9.65;;;21.00;99.90;;;;;;5067861;28;20420;-63
2023/06/19 08:46:02;;;;;;;13.93;8.55;;;20.90;99.90;;;;;;5105135;27;20036;-62
2023/06/19 08:48:27;;;;;;;;;;;21.00;99.90;;;;;;5082619;28;20055;-63
2023/06/19 08:50:54;;;;;;;15.45;10.18;;;20.90;99.90;;;;;;5099097;27;19920;-63
2023/06/19 08:53:20;;;;;;;13.60;9.25;;;20.90;99.90;;;;;;5075127;28;20048;-63
2023/06/19 08:55:46;;;;;;;12.98;8.88;;;21.00;99.90;;;;;;5074047;28;20337;-61
2023/06/19 08:58:20;;;;;;;13.02;9.50;;;20.90;99.90;;;;;;5070752;28;20028;-63
2023/06/19 09:00:47;;;;;;;11.82;8.73;;;20.90;99.90;;;;;;5063408;28;20056;-62
2023/06/19 09:03:21;;;;;;;13.82;10.45;;;20.90;99.90;;;;;;5067702;28;20121;-63
2023/06/19 09:05:50;;;;;;;14.10;9.63;;;20.90;99.90;;;;;;5069235;28;20043;-62
2023/06/19 09:08:16;;;;;;;13.68;9.70;;;20.90;99.90;;;;;;5069737;28;20036;-62
2023/06/19 09:10:43;;;;;;;17.25;10.60;;;20.90;99.90;;;;;;5067853;28;20155;-63
2023/06/19 09:13:09;;;;;;;14.27;8.68;;;20.90;99.90;;;;;;5067854;28;20044;-62
2023/06/19 09:15:36;;;;;;;15.05;9.65;;;20.90;99.90;;;;;;5070807;28;20047;-62
2023/06/19 09:18:09;;;;;;;13.73;10.13;;;20.90;99.90;;;;;;5066984;28;20116;-62
2023/06/19 09:20:44;;;;;;;13.43;9.65;;;20.90;99.90;;;;;;5064930;28;20059;-63
2023/06/19 09:23:13;;;;;;;15.88;9.07;;;20.90;99.90;;;;;;5072528;28;20177;-62
2023/06/19 09:25:50;;;;;;;16.73;9.65;;;20.90;99.90;;;;;;5066447;28;20056;-62
2023/06/19 09:28:22;;;;;;;13.93;9.75;;;20.90;99.90;;;;;;5067336;28;20092;-62
2023/06/19 09:30:57;;;;;;;14.27;9.48;;;20.90;99.90;;;;;;5072126;28;20044;-62
2023/06/19 09:33:30;;;;;;;15.35;9.63;;;20.90;99.90;;;;;;5065755;28;20024;-62
2023/06/19 09:35:58;;;;;;;10.23;8.93;;;20.90;99.90;;;;;;5065776;28;20071;-62
2023/06/19 09:38:29;;;;;;;12.48;9.90;;;20.90;99.90;;;;;;5064574;28;20036;-62
2023/06/19 09:40:58;;;;;;;12.20;9.43;;;20.90;99.90;;;;;;5069235;28;20518;-62
2023/06/19 09:43:29;;;;;;;12.00;8.70;;;20.90;99.90;;;;;;5066116;28;20151;-63
2023/06/19 09:45:58;;;;;;;11.07;9.50;;;20.90;99.90;;;;;;5065919;28;20044;-63
2023/06/19 09:48:32;;;;;;;11.75;8.52;;;20.90;99.90;;;;;;5065400;28;20123;-63
2023/06/19 09:51:12;;;;;;;11.60;9.27;;;21.00;99.90;;;;;;5067330;28;20066;-63
2023/06/19 09:53:40;;;;;;;12.05;8.32;;;21.00;99.90;;;;;;5070537;28;20078;-63
2023/06/19 09:56:07;;;;;;;14.10;9.60;;;21.00;99.90;;;;;;5069264;28;20040;-63
2023/06/19 09:58:34;;;;;;;12.82;9.48;;;21.00;99.90;;;;;;5069505;28;20064;-63
2023/06/19 10:01:02;;;;;;;12.52;9.52;;;21.00;99.90;;;;;;5088647;28;20068;-63
2023/06/19 10:03:35;;;;;;;16.30;10.35;;;21.00;99.90;;;;;;5069066;28;20039;-63
2023/06/19 10:06:03;;;;;;;11.60;9.23;;;21.00;99.90;;;;;;5067383;28;20491;-63
2023/06/19 10:08:39;;;;;;;13.52;9.50;;;21.00;99.90;;;;;;5103716;27;20095;-63
2023/06/19 10:11:05;;;;;;;13.77;9.23;;;21.00;99.90;;;;;;5067885;28;20072;-63
2023/06/19 10:13:33;;;;;;;12.05;9.45;;;21.10;99.90;;;;;;5074913;28;20098;-63
2023/06/19 10:15:59;;;;;;;10.70;8.88;;;;;;;;;;5069023;28;20247;-63
2023/06/19 10:18:26;;;;;;;12.38;9.25;;;;;;;;;;5072960;28;20131;-63
2023/06/19 10:20:54;;;;;;;11.85;9.05;;;;;;;;;;5067250;28;20120;-63
2023/06/19 10:23:25;;;;;;;13.90;9.32;;;21.10;99.90;;;;;;5072127;28;20107;-63
2023/06/19 10:26:00;;;;;;;10.68;8.55;;;21.40;99.90;;;;;;5068710;28;20044;-63
2023/06/19 10:28:28;;;;;;;12.38;8.35;;;21.50;99.90;;;;;;5073309;28;20139;-63
2023/06/19 10:31:08;;;;;;;10.45;7.40;;;21.50;99.90;;;;;;5066521;28;20040;-63
2023/06/19 10:33:40;;;;;;;15.25;9.50;;;21.60;99.90;;;;;;5069866;28;20399;-63
2023/06/19 10:36:25;;;;;;;12.17;9.23;;;21.70;99.90;;;;;;5072869;28;20298;-63
2023/06/19 10:38:51;;;;;;;13.00;8.57;;;21.80;99.90;;;;;;5069627;28;20036;-63
2023/06/19 10:41:25;;;;;;;11.98;8.32;;;21.90;99.90;;;;;;5062875;28;20059;-64
2023/06/19 10:43:58;;;;;;;13.82;10.02;;;21.90;99.90;;;;;;5067153;28;20142;-63
2023/06/19 10:46:24;;;;;;;10.95;7.50;;;22.00;99.90;;;;;;5068896;28;20070;-63
2023/06/19 10:48:51;;;;;;;14.88;8.80;;;22.00;99.90;;;;;;5065332;28;20106;-63
2023/06/19 10:51:20;;;;;;;11.18;7.82;;;22.10;99.90;;;;;;5074682;28;20569;-63
2023/06/19 10:53:46;;;;;;;15.98;10.23;;;22.10;99.90;;;;;;5068619;28;20036;-64
2023/06/19 10:56:12;;;;;;;11.77;9.63;;;22.10;99.90;;;;;;5065312;28;20040;-61
2023/06/19 10:58:37;;;;;;;11.77;8.88;;;22.10;99.90;;;;;;5078542;28;20047;-63
2023/06/19 11:01:03;;;;;;;12.23;9.68;;;22.10;99.90;;;;;;5071512;28;20051;-62
2023/06/19 11:03:31;;;;;;;13.63;9.23;;;22.10;99.90;;;;;;5070253;28;20124;-62
2023/06/19 11:05:57;;;;;;;11.60;8.88;;;22.20;99.90;;;;;;5072952;28;20492;-61
2023/06/19 11:08:23;;;;;;;11.90;10.55;;;22.20;99.90;;;;;;5074555;28;20115;-62
2023/06/19 11:10:50;;;;;;;13.73;8.75;;;22.20;99.90;;;;;;5073187;28;20102;-62
2023/06/19 11:13:20;;;;;;;15.10;10.40;;;22.20;99.90;;;;;;5110213;27;20033;-62
2023/06/19 11:15:51;;;;;;;14.90;11.43;;;22.20;99.90;;;;;;5074727;28;20120;-62
2023/06/19 11:18:18;;;;;;;13.50;10.80;;;22.30;99.90;;;;;;5073297;28;20112;-62
2023/06/19 11:20:53;;;;;;;21.00;11.90;;;22.40;99.90;;;;;;5070647;28;20045;-62
2023/06/19 11:23:31;;;;;;;14.98;11.65;;;22.40;99.80;;;;;;5079802;28;20039;-62
2023/06/19 11:26:04;;;;;;;14.57;11.15;;;22.40;99.80;;;;;;5076959;28;20048;-62
2023/06/19 11:28:30;;;;;;;13.07;10.75;;;22.40;99.70;;;;;;5069678;28;20056;-62
2023/06/19 11:31:01;;;;;;;15.10;10.32;;;22.40;99.70;;;;;;5070815;28;20040;-62
2023/06/19 11:33:27;;;;;;;11.70;9.65;;;22.40;99.50;;;;;;5079391;28;20036;-62
2023/06/19 11:35:57;;;;;;;11.88;8.95;;;22.40;99.50;;;;;;5086588;28;20033;-63
2023/06/19 11:38:25;;;;;;;15.93;9.65;;;22.40;99.50;;;;;;5073215;28;20032;-63
2023/06/19 11:40:52;;;;;;;13.90;10.82;;;22.50;99.40;;;;;;5072396;28;20059;-63
2023/06/19 11:43:28;;;;;;;12.73;10.68;;;22.50;99.30;;;;;;5072781;28;20204;-63
2023/06/19 11:46:03;;;;;;;14.23;9.85;;;22.60;99.20;;;;;;5072204;28;20105;-63
2023/06/19 11:48:29;;;;;;;11.73;9.32;;;22.70;99.10;;;;;;5073086;28;20104;-63
2023/06/19 11:50:55;;;;;;;11.45;8.32;;;22.70;99.00;;;;;;5077034;28;20068;-63
2023/06/19 11:53:22;;;;;;;14.25;9.32;;;22.80;98.90;;;;;;5072809;28;20040;-63
2023/06/19 11:55:48;;;;;;;9.88;7.22;;;;;;;;;;5070375;28;20541;-63
2023/06/19 11:58:19;;;;;;;14.15;9.80;;;;;;;;;;5076720;28;20029;-63
2023/06/19 12:00:45;;;;;;;13.07;9.13;;;;;;;;;;5072653;28;20044;-63
2023/06/19 12:03:11;;;;;;;11.23;7.20;;;;;;;;;;5090951;28;20044;-64
2023/06/19 12:05:37;;;;;;;8.30;7.13;;;22.90;98.90;;;;;;5071469;28;20491;-63
2023/06/19 12:08:04;;;;;;;10.45;8.25;;;23.20;98.50;;;;;;5077179;28;20032;-63
2023/06/19 12:10:30;;;;;;;10.35;7.28;;;23.30;98.40;;;;;;5069634;28;20044;-63
2023/06/19 12:12:56;;;;;;;9.20;7.95;;;23.30;98.30;;;;;;5105417;28;20285;-63
2023/06/19 12:15:23;;;;;;;11.40;7.93;;;23.30;98.20;;;;;;5070179;28;20024;-63
2023/06/19 12:17:48;;;;;;;10.20;7.60;;;23.30;98.10;;;;;;5071052;28;20660;-63
2023/06/19 12:20:14;;;;;;;10.73;8.60;;;23.40;98.10;;;;;;5068676;28;20049;-63
2023/06/19 12:22:40;;;;;;;9.02;6.82;;;23.40;98.10;;;;;;5076409;28;20052;-63
2023/06/19 12:25:06;;;;;;;13.27;7.63;;;23.50;98.10;;;;;;5066728;28;20033;-63
2023/06/19 12:27:32;;;;;;;10.05;7.22;;;23.60;98.10;;;;;;5071133;28;20049;-64
2023/06/19 12:29:58;;;;;;;11.25;8.25;;;23.70;98.00;;;;;;5104293;27;20067;-63
2023/06/19 12:32:24;;;;;;;9.23;6.60;;;23.80;97.90;;;;;;5073120;28;20040;-63
2023/06/19 12:34:53;;;;;;;7.82;6.38;;;23.90;97.80;;;;;;5073256;28;20032;-64
2023/06/19 12:37:22;;;;;;;10.50;7.43;;;24.00;97.70;;;;;;5070356;28;20316;-63
2023/06/19 12:39:49;;;;;;;10.82;6.70;;;24.00;97.50;;;;;;5055499;28;20040;-63